Latest Coastal Weather Observations for East Sale

IDV60701

Issued at 12:02 am EDT Thursday 11 February 2016 (issued every 10 minutes, with the page automatically refreshed every 10 minutes)

About coastal observations | Map of coastal stations | Coastal observations for VIC | Marine services | Other Formats
Station Details ID: 085072 Name: EAST SALE AIRPORT Lat: -38.12 Lon: 147.13 Height: 4.6 m
Data from the previous 72 hours. | See also: Recent months at East Sale
Date/Time
EDT
Temp

°C
Wind Pressure Rain
since 9am
mm
Weather Cloud Vis
km
Sea
Height
m
Swell
Dir
 
Speed
knots
Gust
knots
hPa Trend Height
m
Period
s
Dir
11/12:00am 16.7 ESE 5 5 1016.4 R - - Partly cloudy 20 - - - -
 
Date/Time
EDT
Temp

°C
Wind Pressure Rain
since 9am
mm
Weather Cloud Vis
km
Sea
Height
m
Swell
Dir
 
Speed
knots
Gust
knots
hPa Trend Height
m
Period
s
Dir
10/11:30pm 16.9 SSE 6 9 1016.5 - 0.0 - Partly cloudy 10 - - - -
10/11:00pm 16.9 SE 6 9 1016.6 - 0.0 - Partly cloudy 10 - - - -
10/10:30pm 16.9 E 5 6 1016.5 - 0.0 - Partly cloudy 10 - - - -
10/10:00pm 16.6 ESE 6 7 1016.2 - 0.0 - - 10 - - - -
10/09:30pm 17.4 ESE 6 6 1015.8 - 0.0 - - 10 - - - -
10/09:00pm 18.0 ESE 7 7 1015.4 R 0.0 - - 10 - - - -
10/08:30pm 18.5 ESE 7 8 1015.2 - 0.0 - - 10 - - - -
10/08:00pm 19.7 ESE 9 11 1015.1 - 0.0 - - 10 - - - -
10/07:30pm 20.5 ESE 10 11 1014.7 - 0.0 - - 10 - - - -
10/07:00pm 20.6 ESE 11 13 1014.4 - 0.0 - - 10 - - - -
10/06:30pm 21.1 SE 9 13 1014.0 - 0.0 - - 10 - - - -
10/06:00pm 21.4 SE 10 14 1013.8 R 0.0 - - 10 - - - -
10/05:30pm 22.6 SE 10 15 1013.7 - 0.0 - Partly cloudy 10 - - - -
10/05:00pm 23.8 ESE 11 15 1013.5 - 0.0 - Partly cloudy 10 - - - -
10/04:30pm 24.1 ESE 13 17 1013.3 - 0.0 - Partly cloudy 10 - - - -
10/04:00pm 24.1 E 10 13 1013.6 - 0.0 - Mostly clear 10 - - - -
10/03:30pm 23.6 ESE 12 16 1013.7 - 0.0 - Partly cloudy 10 - - - -
10/03:00pm 23.9 ESE 11 14 1013.8 F 0.0 - Mostly cloudy 10 - - - -
10/02:30pm 24.1 SE 4 8 1014.1 - 0.0 - Partly cloudy 10 - - - -
10/02:00pm 24.1 WSW 5 7 1014.4 - 0.0 - Mostly clear 10 - - - -
10/01:30pm 22.0 WNW 4 7 1014.6 - 0.0 - Partly cloudy 10 - - - -
10/01:00pm 20.9 WSW 7 11 1015.0 - 0.0 - Mostly cloudy 9 - - - -
10/12:30pm 20.6 W 6 10 1015.2 - 0.0 - Mostly cloudy 9 - - - -
10/12:00pm 19.7 W 7 10 1015.4 F 0.0 - Cloudy 9 - - - -
10/11:30am 19.6 WNW 6 8 1015.8 - 0.0 - Mostly cloudy 10 - - - -
10/11:00am 19.5 WNW 9 11 1016.0 - 0.0 - Mostly cloudy 10 - - - -
10/10:30am 19.9 W 6 9 1015.9 - 0.0 - Partly cloudy 10 - - - -
10/10:00am 19.8 W 8 11 1016.1 - 0.0 - Mostly clear 10 - - - -
10/09:30am 18.2 W 8 11 1016.2 - 0.0 - Mostly clear 10 - - - -
10/09:00am 16.9 W 9 12 1016.2 R 0.0 - Mostly cloudy 7 - - - -
10/08:42am 16.4 W 8 11 1016.0 - 0.0 - Mostly clear 7 - - - -
10/08:30am 15.9 WSW 9 12 1015.9 - 0.0 Mist Partly cloudy 5 - - - -
10/08:00am 14.9 WSW 9 12 1015.7 - 0.0 - Cloudy 0.5 - - - -
10/07:30am 14.3 WSW 7 9 1015.4 - 0.0 Fog Cloudy 0.5 - - - -
10/07:20am 14.2 W 7 9 1015.3 - 0.0 Mist Partly cloudy 2 - - - -
10/07:13am 14.3 W 8 11 1015.2 - 0.0 Mist Mostly clear 5 - - - -
10/07:00am 14.2 WNW 7 9 1014.9 - 0.0 - Partly cloudy 10 - - - -
10/06:30am 13.9 WNW 7 8 1014.7 - 0.0 - - 10 - - - -
10/06:00am 13.8 NW 6 7 1014.8 R 0.0 - - 10 - - - -
10/05:35am 14.0 NW 6 7 1014.8 - 0.0 - Partly cloudy 10 - - - -
10/05:30am 13.5 NW 5 5 1014.7 - 0.0 - Partly cloudy 10 - - - -
10/05:00am 13.5 NW 4 5 1014.7 - 0.0 - Cloudy 10 - - - -
10/04:39am 13.7 WNW 4 5 1014.4 - 0.0 - Partly cloudy 9 - - - -
10/04:30am 13.7 W 3 4 1014.4 - 0.0 - Partly cloudy 10 - - - -
10/04:17am 13.7 W 3 4 1014.4 - 0.0 - - 10 - - - -
10/04:05am 13.8 WSW 4 5 1014.3 - 0.0 - - 6 - - - -
10/04:00am 14.1 WSW 4 5 1014.3 - 0.0 - - 7 - - - -
10/03:30am 14.0 W 5 5 1014.2 - 0.0 - - 10 - - - -
10/03:00am 14.2 SW 2 3 1014.3 F 0.0 - - 10 - - - -
10/02:30am 14.3 SSW 5 5 1014.7 - 0.0 - - 8 - - - -
10/02:00am 14.3 SW 5 5 1015.0 - 0.0 - - 8 - - - -
10/01:30am 15.7 SSW 5 5 1015.2 - 0.0 - - 9 - - - -
10/01:00am 15.6 CALM 0 0 1015.6 - 0.0 - - 10 - - - -
10/12:30am 15.2 CALM 0 0 1016.0 - 0.0 - - 10 - - - -
10/12:00am 15.3 CALM 0 0 1016.4 F 0.0 - - 10 - - - -
 
Date/Time
EDT
Temp

°C
Wind Pressure Rain
since 9am
mm
Weather Cloud Vis
km
Sea
Height
m
Swell
Dir
 
Speed
knots
Gust
knots
hPa Trend Height
m
Period
s
Dir
09/11:30pm 16.1 CALM 0 0 1016.8 - 0.0 - - 10 - - - -
09/11:00pm 16.0 CALM 0 0 1017.2 - 0.0 - - 10 - - - -
09/10:30pm 16.8 CALM 0 0 1017.5 - 0.0 - - 10 - - - -
09/10:00pm 17.0 ENE 4 5 1017.6 - 0.0 - - 10 - - - -
09/09:30pm 17.8 ESE 5 6 1017.6 - 0.0 - - 10 - - - -
09/09:00pm 18.5 E 7 7 1017.6 F 0.0 - - 10 - - - -
09/08:30pm 19.2 E 7 8 1017.6 - 0.0 - - 10 - - - -
09/08:00pm 20.5 E 9 11 1017.7 - 0.0 - - 10 - - - -
09/07:30pm 21.5 E 11 13 1017.5 - 0.0 - - 10 - - - -
09/07:00pm 22.0 E 10 13 1017.4 - 0.0 - - 10 - - - -
09/06:30pm 22.5 E 11 14 1017.3 - 0.0 - - 10 - - - -
09/06:00pm 23.1 ENE 13 15 1017.4 F 0.0 - - 10 - - - -
09/05:30pm 23.8 ENE 14 17 1017.4 - 0.0 - - 10 - - - -
09/05:00pm 24.1 E 13 17 1017.8 - 0.0 - - 10 - - - -
09/04:30pm 23.8 E 12 17 1018.1 - 0.0 - - 10 - - - -
09/04:00pm 23.8 E 12 15 1018.2 - 0.0 - - 10 - - - -
09/03:30pm 23.7 E 12 16 1018.6 - 0.0 - - 10 - - - -
09/03:00pm 23.6 E 12 17 1019.0 F 0.0 - - 10 - - - -
09/02:30pm 23.8 E 12 17 1019.3 - 0.0 - - 10 - - - -
09/02:00pm 23.3 E 11 17 1019.7 - 0.0 - - 10 - - - -
09/01:30pm 23.0 ENE 8 11 1019.8 - 0.0 - - 10 - - - -
09/01:00pm 23.4 - - - 1020.1 - 0.0 - - 10 - - - -
09/12:30pm 22.7 ENE 6 11 1020.5 - 0.0 - - 10 - - - -
09/12:00pm 22.2 SW 2 6 1020.9 F 0.0 - - 10 - - - -
09/11:30am 20.8 NW 4 5 1021.1 - 0.0 - - 10 - - - -
09/11:00am 20.2 E 5 7 1021.4 - 0.0 - - 10 - - - -
09/10:30am 19.8 SSE 4 6 1021.7 - 0.0 - Partly cloudy 10 - - - -
09/10:00am 18.6 SW 5 8 1021.8 - 0.0 - - 10 - - - -
09/09:30am 17.8 WNW 4 7 1022.2 - 0.0 - - 10 - - - -
09/09:00am 16.5 WNW 5 7 1022.5 S 0.0 - - 10 - - - -
09/08:30am 15.3 NW 4 5 1022.5 - 0.0 - - 10 - - - -
09/08:00am 14.3 NNW 4 6 1022.2 - 0.0 - - 10 - - - -
09/07:30am 12.7 NNW 4 4 1022.1 - 0.0 - - 10 - - - -
09/07:00am 11.2 NW 5 5 1021.9 - 0.0 - - 10 - - - -
09/06:30am 10.9 NW 5 6 1021.7 - 0.0 - - 10 - - - -
09/06:00am 10.9 WNW 5 6 1021.5 F 0.0 - - 10 - - - -
09/05:30am 11.2 NNW 5 6 1021.4 - 0.0 - - 10 - - - -
09/05:00am 12.0 NW 4 4 1021.3 - 0.0 - - 10 - - - -
09/04:30am 12.5 W 4 6 1021.3 - 0.0 - - 10 - - - -
09/04:00am 12.4 W 5 6 1021.3 - 0.0 - - 10 - - - -
09/03:30am 12.4 WSW 5 6 1021.5 - 0.0 - - 10 - - - -
09/03:00am 12.6 WNW 5 5 1021.6 S 0.0 - - 10 - - - -
09/02:30am 13.7 NNW 6 7 1021.6 - 0.0 - - 10 - - - -
09/02:00am 13.6 NW 6 7 1021.9 - 0.0 - - 10 - - - -
09/01:30am 13.9 NW 6 6 1022.2 - 0.0 - - 10 - - - -
09/01:00am 14.2 WNW 6 7 1022.5 - 0.0 - - 10 - - - -
09/12:30am 14.7 WNW 8 9 1022.3 - 0.0 - - 10 - - - -
09/12:00am 15.0 WNW 6 7 1022.5 R 0.0 - Mostly clear 10 - - - -
 
Date/Time
EDT
Temp

°C
Wind Pressure Rain
since 9am
mm
Weather Cloud Vis
km
Sea
Height
m
Swell
Dir
 
Speed
knots
Gust
knots
hPa Trend Height
m
Period
s
Dir
08/11:30pm 14.8 WNW 7 8 1022.5 - 0.0 - - 10 - - - -
08/11:00pm 16.4 WSW 3 5 1022.3 - 0.0 - - 10 - - - -
08/10:30pm 16.8 NNW 6 7 1022.2 - 0.0 - - 10 - - - -
08/10:00pm 18.1 N 9 10 1021.9 - 0.0 - - 10 - - - -
08/09:30pm 18.8 NNW 7 9 1021.7 - 0.0 - - 10 - - - -
08/09:00pm 19.1 NNW 7 10 1021.3 R 0.0 - - 10 - - - -
08/08:30pm 20.3 N 9 12 1020.8 - 0.0 - - 10 - - - -
08/08:00pm 21.2 N 9 11 1020.4 - 0.0 - - 10 - - - -
08/07:30pm 22.2 NNE 10 14 1020.2 - 0.0 - - 10 - - - -
08/07:00pm 23.2 NE 12 14 1019.6 - 0.0 - - 10 - - - -
08/06:30pm 24.2 NE 11 14 1019.5 - 0.0 - - 10 - - - -
08/06:00pm 25.8 NE 10 13 1019.3 F 0.0 - - 10 - - - -
08/05:30pm 26.1 E 11 15 1019.2 - 0.0 - - 10 - - - -
08/05:00pm 26.4 ENE 12 15 1019.4 - 0.0 - Mostly clear 10 - - - -
08/04:30pm 26.4 ESE 8 14 1019.5 - 0.0 - Partly cloudy 10 - - - -
08/04:00pm 26.2 ESE 10 15 1019.6 - 0.0 - Cloudy 10 - - - -
08/03:30pm 27.2 NE 11 14 1019.6 - 0.0 - Mostly clear 10 - - - -
08/03:00pm 27.2 N 8 13 1019.7 R 0.0 - - 10 - - - -
08/02:30pm 26.8 WNW 11 15 1019.8 - 0.0 - Mostly clear 10 - - - -
08/02:00pm 26.5 WNW 12 17 1020.0 - 0.0 - Mostly clear 10 - - - -
08/01:30pm 26.1 W 12 16 1020.2 - 0.0 - - 10 - - - -
08/01:00pm 26.0 W 12 19 1020.2 - 0.0 - - 10 - - - -
08/12:30pm 25.5 W 12 16 1020.5 - 0.0 - - 10 - - - -
08/12:00pm 24.7 W 12 18 1020.8 R 0.0 - - 10 - - - -
08/11:30am 24.0 W 13 16 1021.0 - 0.0 - - 10 - - - -
08/11:00am 22.8 W 13 17 1021.1 - 0.0 - - 10 - - - -
08/10:30am 22.7 W 12 17 1021.1 - 0.0 - Mostly clear 10 - - - -
08/10:00am 22.0 W 13 19 1021.1 - 0.0 - Mostly clear 10 - - - -
08/09:30am 21.2 W 12 17 1021.0 - 0.0 - Mostly clear 10 - - - -
08/09:00am 20.2 WSW 11 18 1020.8 R 0.0 - Mostly clear 10 - - - -
08/08:30am 19.4 WSW 6 9 1020.7 - 0.0 - Mostly clear 10 - - - -
08/08:00am 18.5 SSW 2 4 1020.5 - 0.0 - - 8 - - - -
08/07:30am 17.7 SSE 1 3 1020.3 - 0.0 Mist - 5 - - - -
08/07:00am 16.4 S 4 6 1020.1 - 0.0 - - 6 - - - -
08/06:30am 17.1 WSW 9 13 1019.8 - 0.0 - - - - - - -
08/06:00am 17.5 WSW 12 16 1019.2 R 0.0 - - - - - - -
08/05:30am 17.5 W 11 15 1018.8 - 0.0 - - - - - - -
08/05:00am 17.8 W 11 16 1018.6 - 0.0 - - - - - - -
08/04:30am 17.6 WSW 11 15 1018.5 - 0.0 - - - - - - -
08/04:00am 17.7 W 11 14 1018.5 - 0.0 - - - - - - -
08/03:30am 18.2 WNW 7 9 1018.5 - 0.0 - - - - - - -
08/03:00am 16.3 WNW 6 7 1018.5 R 0.0 - - - - - - -
08/02:30am 16.9 W 5 6 1018.5 - 0.0 - - - - - - -
08/02:00am 17.1 NW 4 5 1018.6 - 0.0 - - - - - - -
08/01:30am 17.0 WSW 4 5 1018.8 - 0.0 - - - - - - -
08/01:00am 17.9 SW 3 4 1018.7 - 0.0 - - - - - - -
08/12:30am 17.3 CALM 0 0 1018.6 - 0.0 - - - - - - -

Other Formats:

Comma delimited format used in spreadsheet applications
http://www.bom.gov.au/fwo/IDV60701/IDV60701.94907.axf

JavaScript Object Notation format (JSON) in row-major order
http://www.bom.gov.au/fwo/IDV60701/IDV60701.94907.json